sensor_id;sensor_type;location;lat;lon;timestamp;pressure;altitude;pressure_sealevel;temperature;humidity
49943;BME280;36011;53.362;58.948;2023-02-17T00:01:48;97505.84;;;-13.03;66.79
49943;BME280;36011;53.362;58.948;2023-02-17T00:04:51;97506.06;;;-12.97;66.82
49943;BME280;36011;53.362;58.948;2023-02-17T00:07:53;97496.56;;;-13.03;67.01
49943;BME280;36011;53.362;58.948;2023-02-17T00:10:56;97496.97;;;-12.92;66.25
49943;BME280;36011;53.362;58.948;2023-02-17T00:14:00;97506.78;;;-13.01;66.57
49943;BME280;36011;53.362;58.948;2023-02-17T00:17:01;97499.91;;;-13.04;66.31
49943;BME280;36011;53.362;58.948;2023-02-17T00:20:04;97489.50;;;-13.12;66.51
49943;BME280;36011;53.362;58.948;2023-02-17T00:23:05;97484.22;;;-13.18;66.75
49943;BME280;36011;53.362;58.948;2023-02-17T00:26:09;97496.91;;;-13.16;66.35
49943;BME280;36011;53.362;58.948;2023-02-17T00:29:13;97499.28;;;-13.21;66.32
49943;BME280;36011;53.362;58.948;2023-02-17T00:32:17;97500.47;;;-13.35;66.45
49943;BME280;36011;53.362;58.948;2023-02-17T00:35:22;97500.59;;;-13.32;66.76
49943;BME280;36011;53.362;58.948;2023-02-17T00:38:23;97492.06;;;-13.34;66.68
49943;BME280;36011;53.362;58.948;2023-02-17T00:41:30;97479.59;;;-13.29;65.96
49943;BME280;36011;53.362;58.948;2023-02-17T00:44:31;97480.44;;;-13.29;65.84
49943;BME280;36011;53.362;58.948;2023-02-17T00:47:37;97488.59;;;-13.36;66.00
49943;BME280;36011;53.362;58.948;2023-02-17T00:50:38;97475.91;;;-13.38;66.01
49943;BME280;36011;53.362;58.948;2023-02-17T00:53:42;97480.44;;;-13.29;65.88
49943;BME280;36011;53.362;58.948;2023-02-17T00:56:43;97477.91;;;-13.51;66.03
49943;BME280;36011;53.362;58.948;2023-02-17T00:59:47;97477.78;;;-13.54;65.59
49943;BME280;36011;53.362;58.948;2023-02-17T01:02:48;97489.50;;;-13.57;66.03
49943;BME280;36011;53.362;58.948;2023-02-17T01:05:49;97476.31;;;-13.70;66.53
49943;BME280;36011;53.362;58.948;2023-02-17T01:08:53;97477.22;;;-13.47;66.27
49943;BME280;36011;53.362;58.948;2023-02-17T01:11:57;97468.22;;;-13.39;65.64
49943;BME280;36011;53.362;58.948;2023-02-17T01:15:01;97471.00;;;-13.55;66.18
49943;BME280;36011;53.362;58.948;2023-02-17T01:18:02;97456.28;;;-13.43;66.12
49943;BME280;36011;53.362;58.948;2023-02-17T01:21:03;97451.16;;;-13.45;66.07
49943;BME280;36011;53.362;58.948;2023-02-17T01:24:06;97450.06;;;-13.51;66.56
49943;BME280;36011;53.362;58.948;2023-02-17T01:27:10;97441.09;;;-13.43;66.53
49943;BME280;36011;53.362;58.948;2023-02-17T01:30:11;97436.47;;;-13.31;66.12
49943;BME280;36011;53.362;58.948;2023-02-17T01:33:13;97418.88;;;-13.50;66.17
49943;BME280;36011;53.362;58.948;2023-02-17T01:36:16;97441.53;;;-13.31;65.97
49943;BME280;36011;53.362;58.948;2023-02-17T01:39:18;97447.78;;;-13.21;65.80
49943;BME280;36011;53.362;58.948;2023-02-17T01:42:20;97449.50;;;-13.44;65.87
49943;BME280;36011;53.362;58.948;2023-02-17T01:48:44;97450.50;;;-13.39;66.37
49943;BME280;36011;53.362;58.948;2023-02-17T01:52:21;97450.91;;;-13.28;65.98
49943;BME280;36011;53.362;58.948;2023-02-17T01:55:26;97446.03;;;-13.22;66.19
49943;BME280;36011;53.362;58.948;2023-02-17T01:58:32;97440.03;;;-13.26;66.41
49943;BME280;36011;53.362;58.948;2023-02-17T02:01:34;97439.47;;;-13.17;66.01
49943;BME280;36011;53.362;58.948;2023-02-17T02:04:38;97432.16;;;-13.09;66.10
49943;BME280;36011;53.362;58.948;2023-02-17T02:07:42;97438.31;;;-13.03;65.69
49943;BME280;36011;53.362;58.948;2023-02-17T02:10:46;97432.50;;;-13.00;65.73
49943;BME280;36011;53.362;58.948;2023-02-17T02:13:50;97436.50;;;-13.07;65.47
49943;BME280;36011;53.362;58.948;2023-02-17T02:23:57;97406.03;;;-13.08;65.33
49943;BME280;36011;53.362;58.948;2023-02-17T02:33:41;97400.47;;;-13.22;65.22
49943;BME280;36011;53.362;58.948;2023-02-17T02:37:01;97387.34;;;-13.36;65.54
49943;BME280;36011;53.362;58.948;2023-02-17T02:40:06;97402.53;;;-13.36;65.45
49943;BME280;36011;53.362;58.948;2023-02-17T02:43:09;97401.56;;;-13.40;65.41
49943;BME280;36011;53.362;58.948;2023-02-17T02:46:10;97390.91;;;-13.31;65.39
49943;BME280;36011;53.362;58.948;2023-02-17T02:49:11;97384.13;;;-13.32;65.00
49943;BME280;36011;53.362;58.948;2023-02-17T02:52:24;97383.91;;;-13.38;64.98
49943;BME280;36011;53.362;58.948;2023-02-17T03:08:47;97386.13;;;-13.70;66.20
49943;BME280;36011;53.362;58.948;2023-02-17T03:11:54;97388.19;;;-13.60;65.64
49943;BME280;36011;53.362;58.948;2023-02-17T03:15:07;97383.81;;;-13.41;65.66
49943;BME280;36011;53.362;58.948;2023-02-17T03:18:13;97383.44;;;-13.50;64.80
49943;BME280;36011;53.362;58.948;2023-02-17T03:21:14;97379.41;;;-13.45;65.30
49943;BME280;36011;53.362;58.948;2023-02-17T03:24:17;97377.00;;;-13.65;65.10
49943;BME280;36011;53.362;58.948;2023-02-17T03:27:20;97379.91;;;-13.55;65.24
49943;BME280;36011;53.362;58.948;2023-02-17T03:30:22;97379.44;;;-13.68;65.59
49943;BME280;36011;53.362;58.948;2023-02-17T03:33:23;97378.06;;;-13.60;65.72
49943;BME280;36011;53.362;58.948;2023-02-17T03:36:27;97376.44;;;-13.58;65.52
49943;BME280;36011;53.362;58.948;2023-02-17T03:39:32;97372.88;;;-13.63;65.70
49943;BME280;36011;53.362;58.948;2023-02-17T03:42:38;97378.00;;;-13.61;65.89
49943;BME280;36011;53.362;58.948;2023-02-17T03:45:40;97383.22;;;-13.57;65.80
49943;BME280;36011;53.362;58.948;2023-02-17T03:48:43;97380.13;;;-13.49;65.63
49943;BME280;36011;53.362;58.948;2023-02-17T03:51:45;97376.22;;;-13.41;65.85
49943;BME280;36011;53.362;58.948;2023-02-17T03:54:50;97372.50;;;-13.27;65.30
49943;BME280;36011;53.362;58.948;2023-02-17T03:57:52;97374.41;;;-13.20;65.63
49943;BME280;36011;53.362;58.948;2023-02-17T04:00:53;97360.78;;;-13.23;65.13
49943;BME280;36011;53.362;58.948;2023-02-17T04:03:57;97374.28;;;-13.23;65.34
49943;BME280;36011;53.362;58.948;2023-02-17T04:07:01;97352.53;;;-13.18;65.25
49943;BME280;36011;53.362;58.948;2023-02-17T04:10:03;97362.88;;;-13.12;65.22
49943;BME280;36011;53.362;58.948;2023-02-17T04:13:05;97359.31;;;-13.17;65.19
49943;BME280;36011;53.362;58.948;2023-02-17T04:16:07;97356.97;;;-13.11;65.22
49943;BME280;36011;53.362;58.948;2023-02-17T04:19:14;97347.50;;;-12.92;65.00
49943;BME280;36011;53.362;58.948;2023-02-17T04:22:17;97341.28;;;-12.76;65.37
49943;BME280;36011;53.362;58.948;2023-02-17T04:25:18;97326.75;;;-12.82;64.84
49943;BME280;36011;53.362;58.948;2023-02-17T04:28:25;97335.75;;;-12.64;64.47
49943;BME280;36011;53.362;58.948;2023-02-17T04:31:27;97339.50;;;-12.53;64.66
49943;BME280;36011;53.362;58.948;2023-02-17T04:34:28;97335.47;;;-12.47;63.90
49943;BME280;36011;53.362;58.948;2023-02-17T04:37:33;97330.22;;;-12.53;64.39
49943;BME280;36011;53.362;58.948;2023-02-17T04:40:35;97330.41;;;-12.47;64.79
49943;BME280;36011;53.362;58.948;2023-02-17T04:43:36;97343.44;;;-12.36;64.68
49943;BME280;36011;53.362;58.948;2023-02-17T04:46:40;97356.53;;;-12.22;64.55
49943;BME280;36011;53.362;58.948;2023-02-17T04:49:47;97358.25;;;-12.21;64.54
49943;BME280;36011;53.362;58.948;2023-02-17T04:52:48;97349.06;;;-12.17;64.21
49943;BME280;36011;53.362;58.948;2023-02-17T04:55:52;97339.13;;;-12.11;64.55
49943;BME280;36011;53.362;58.948;2023-02-17T04:58:57;97349.47;;;-12.05;64.22
49943;BME280;36011;53.362;58.948;2023-02-17T05:02:00;97343.63;;;-12.03;64.56
49943;BME280;36011;53.362;58.948;2023-02-17T05:05:02;97349.56;;;-12.02;64.25
49943;BME280;36011;53.362;58.948;2023-02-17T05:08:10;97346.47;;;-11.92;64.18
49943;BME280;36011;53.362;58.948;2023-02-17T05:11:12;97328.97;;;-11.83;64.70
49943;BME280;36011;53.362;58.948;2023-02-17T05:14:13;97336.19;;;-11.66;64.42
49943;BME280;36011;53.362;58.948;2023-02-17T05:17:19;97329.03;;;-11.51;64.16
49943;BME280;36011;53.362;58.948;2023-02-17T05:20:20;97342.97;;;-11.37;63.79
49943;BME280;36011;53.362;58.948;2023-02-17T05:23:22;97344.91;;;-11.28;63.57
49943;BME280;36011;53.362;58.948;2023-02-17T05:26:26;97339.34;;;-11.15;63.67
49943;BME280;36011;53.362;58.948;2023-02-17T05:29:30;97339.59;;;-11.04;63.22
49943;BME280;36011;53.362;58.948;2023-02-17T05:32:32;97335.72;;;-10.91;62.92
49943;BME280;36011;53.362;58.948;2023-02-17T05:35:36;97327.16;;;-10.95;62.91
49943;BME280;36011;53.362;58.948;2023-02-17T05:38:42;97320.59;;;-10.87;62.76
49943;BME280;36011;53.362;58.948;2023-02-17T05:41:46;97316.31;;;-10.89;62.91
49943;BME280;36011;53.362;58.948;2023-02-17T05:44:49;97303.47;;;-10.94;63.01
49943;BME280;36011;53.362;58.948;2023-02-17T05:47:51;97298.38;;;-10.94;62.73
49943;BME280;36011;53.362;58.948;2023-02-17T05:50:57;97290.97;;;-10.86;62.54
49943;BME280;36011;53.362;58.948;2023-02-17T05:54:02;97291.31;;;-10.72;62.64
49943;BME280;36011;53.362;58.948;2023-02-17T05:57:03;97279.59;;;-10.66;62.35
49943;BME280;36011;53.362;58.948;2023-02-17T06:00:05;97277.81;;;-10.68;62.12
49943;BME280;36011;53.362;58.948;2023-02-17T06:03:07;97264.53;;;-10.58;61.99
49943;BME280;36011;53.362;58.948;2023-02-17T06:06:11;97257.31;;;-10.40;61.86
49943;BME280;36011;53.362;58.948;2023-02-17T06:09:12;97246.69;;;-10.20;61.66
49943;BME280;36011;53.362;58.948;2023-02-17T06:12:19;97244.28;;;-10.14;61.28
49943;BME280;36011;53.362;58.948;2023-02-17T06:15:23;97221.84;;;-9.91;60.81
49943;BME280;36011;53.362;58.948;2023-02-17T06:18:24;97224.63;;;-9.80;60.61
49943;BME280;36011;53.362;58.948;2023-02-17T06:21:28;97226.41;;;-9.76;60.66
49943;BME280;36011;53.362;58.948;2023-02-17T06:24:30;97224.22;;;-9.58;60.71
49943;BME280;36011;53.362;58.948;2023-02-17T06:27:33;97212.25;;;-9.62;59.99
49943;BME280;36011;53.362;58.948;2023-02-17T06:30:42;97209.47;;;-9.74;60.06
49943;BME280;36011;53.362;58.948;2023-02-17T06:33:44;97201.00;;;-9.73;59.75
49943;BME280;36011;53.362;58.948;2023-02-17T06:36:48;97206.03;;;-9.76;59.87
49943;BME280;36011;53.362;58.948;2023-02-17T06:39:49;97199.69;;;-9.53;59.74
49943;BME280;36011;53.362;58.948;2023-02-17T06:42:53;97198.56;;;-9.20;58.57
49943;BME280;36011;53.362;58.948;2023-02-17T06:45:57;97197.72;;;-9.20;58.59
49943;BME280;36011;53.362;58.948;2023-02-17T06:48:59;97194.50;;;-9.09;58.62
49943;BME280;36011;53.362;58.948;2023-02-17T06:52:01;97202.25;;;-9.06;58.10
49943;BME280;36011;53.362;58.948;2023-02-17T06:55:03;97197.25;;;-8.99;58.39
49943;BME280;36011;53.362;58.948;2023-02-17T06:58:07;97189.06;;;-8.80;58.63
49943;BME280;36011;53.362;58.948;2023-02-17T07:01:21;97197.81;;;-8.63;57.75
49943;BME280;36011;53.362;58.948;2023-02-17T07:04:23;97190.28;;;-8.55;57.16
49943;BME280;36011;53.362;58.948;2023-02-17T07:07:26;97186.06;;;-8.54;57.19
49943;BME280;36011;53.362;58.948;2023-02-17T07:10:28;97174.25;;;-8.46;56.29
49943;BME280;36011;53.362;58.948;2023-02-17T07:13:33;97185.47;;;-8.33;57.08
49943;BME280;36011;53.362;58.948;2023-02-17T07:16:35;97185.81;;;-8.09;56.94
49943;BME280;36011;53.362;58.948;2023-02-17T07:19:38;97190.13;;;-8.03;56.87
49943;BME280;36011;53.362;58.948;2023-02-17T07:22:44;97188.63;;;-7.86;56.77
49943;BME280;36011;53.362;58.948;2023-02-17T07:25:47;97198.03;;;-7.82;56.30
49943;BME280;36011;53.362;58.948;2023-02-17T07:28:52;97188.75;;;-7.77;55.94
49943;BME280;36011;53.362;58.948;2023-02-17T07:31:58;97189.72;;;-7.67;56.51
49943;BME280;36011;53.362;58.948;2023-02-17T07:35:00;97186.50;;;-7.48;56.15
49943;BME280;36011;53.362;58.948;2023-02-17T07:38:01;97183.34;;;-7.27;55.72
49943;BME280;36011;53.362;58.948;2023-02-17T07:41:10;97180.91;;;-7.13;55.78
49943;BME280;36011;53.362;58.948;2023-02-17T07:44:12;97185.28;;;-7.01;55.78
49943;BME280;36011;53.362;58.948;2023-02-17T07:47:13;97175.91;;;-6.99;55.29
49943;BME280;36011;53.362;58.948;2023-02-17T07:50:15;97172.47;;;-7.04;55.90
49943;BME280;36011;53.362;58.948;2023-02-17T07:53:16;97167.47;;;-6.86;56.00
49943;BME280;36011;53.362;58.948;2023-02-17T07:56:21;97157.22;;;-6.92;55.34
49943;BME280;36011;53.362;58.948;2023-02-17T07:59:22;97158.91;;;-6.91;55.82
49943;BME280;36011;53.362;58.948;2023-02-17T08:02:29;97143.47;;;-7.03;55.47
49943;BME280;36011;53.362;58.948;2023-02-17T08:05:33;97146.78;;;-7.13;55.56
49943;BME280;36011;53.362;58.948;2023-02-17T08:08:34;97146.88;;;-7.07;55.89
49943;BME280;36011;53.362;58.948;2023-02-17T08:11:54;97144.38;;;-6.98;55.84
49943;BME280;36011;53.362;58.948;2023-02-17T08:15:16;97146.28;;;-6.71;55.96
49943;BME280;36011;53.362;58.948;2023-02-17T08:18:20;97139.53;;;-6.61;55.55
49943;BME280;36011;53.362;58.948;2023-02-17T08:21:23;97134.38;;;-6.67;55.80
49943;BME280;36011;53.362;58.948;2023-02-17T08:24:27;97120.50;;;-6.97;55.40
49943;BME280;36011;53.362;58.948;2023-02-17T08:27:29;97112.88;;;-6.91;55.31
49943;BME280;36011;53.362;58.948;2023-02-17T08:30:34;97117.03;;;-7.04;55.53
49943;BME280;36011;53.362;58.948;2023-02-17T08:33:40;97123.03;;;-7.00;55.37
49943;BME280;36011;53.362;58.948;2023-02-17T08:36:41;97120.56;;;-6.89;55.72
49943;BME280;36011;53.362;58.948;2023-02-17T08:39:45;97122.34;;;-6.78;55.29
49943;BME280;36011;53.362;58.948;2023-02-17T08:42:46;97106.19;;;-6.73;55.49
49943;BME280;36011;53.362;58.948;2023-02-17T08:45:52;97108.03;;;-6.51;54.94
49943;BME280;36011;53.362;58.948;2023-02-17T08:48:53;97101.25;;;-6.40;54.56
49943;BME280;36011;53.362;58.948;2023-02-17T08:51:58;97100.50;;;-6.22;55.42
49943;BME280;36011;53.362;58.948;2023-02-17T08:55:02;97091.13;;;-6.09;54.96
49943;BME280;36011;53.362;58.948;2023-02-17T08:58:06;97081.84;;;-5.70;54.42
49943;BME280;36011;53.362;58.948;2023-02-17T09:01:07;97084.44;;;-5.66;54.16
49943;BME280;36011;53.362;58.948;2023-02-17T09:04:11;97082.72;;;-5.56;53.09
49943;BME280;36011;53.362;58.948;2023-02-17T09:07:16;97081.81;;;-5.85;52.99
49943;BME280;36011;53.362;58.948;2023-02-17T09:10:19;97075.81;;;-5.84;53.50
49943;BME280;36011;53.362;58.948;2023-02-17T09:13:23;97081.81;;;-5.78;52.87
49943;BME280;36011;53.362;58.948;2023-02-17T09:16:27;97074.09;;;-5.92;53.25
49943;BME280;36011;53.362;58.948;2023-02-17T09:19:29;97080.88;;;-6.15;53.17
49943;BME280;36011;53.362;58.948;2023-02-17T09:22:30;97062.03;;;-6.36;54.20
49943;BME280;36011;53.362;58.948;2023-02-17T09:25:34;97063.50;;;-6.78;53.89
49943;BME280;36011;53.362;58.948;2023-02-17T09:28:38;97047.13;;;-7.04;54.45
49943;BME280;36011;53.362;58.948;2023-02-17T09:31:41;97049.56;;;-7.19;54.25
49943;BME280;36011;53.362;58.948;2023-02-17T09:34:48;97036.66;;;-7.38;54.41
49943;BME280;36011;53.362;58.948;2023-02-17T09:38:03;97042.47;;;-7.57;54.68
49943;BME280;36011;53.362;58.948;2023-02-17T09:41:23;97029.59;;;-7.68;54.49
49943;BME280;36011;53.362;58.948;2023-02-17T09:44:41;97032.97;;;-7.72;54.21
49943;BME280;36011;53.362;58.948;2023-02-17T09:47:55;97017.59;;;-7.78;55.29
49943;BME280;36011;53.362;58.948;2023-02-17T09:51:02;97024.53;;;-7.62;55.14
49943;BME280;36011;53.362;58.948;2023-02-17T09:57:24;97020.84;;;-7.90;55.53
49943;BME280;36011;53.362;58.948;2023-02-17T10:00:37;97027.47;;;-8.10;55.70
49943;BME280;36011;53.362;58.948;2023-02-17T10:03:49;97033.13;;;-8.39;55.08
49943;BME280;36011;53.362;58.948;2023-02-17T10:07:18;97028.69;;;-8.57;55.66
49943;BME280;36011;53.362;58.948;2023-02-17T10:10:26;97032.84;;;-8.64;55.97
49943;BME280;36011;53.362;58.948;2023-02-17T10:13:31;97029.44;;;-8.66;56.33
49943;BME280;36011;53.362;58.948;2023-02-17T10:16:39;97023.50;;;-8.62;55.82
49943;BME280;36011;53.362;58.948;2023-02-17T10:19:51;97019.19;;;-8.69;55.89
49943;BME280;36011;53.362;58.948;2023-02-17T10:22:59;97020.00;;;-8.70;56.25
49943;BME280;36011;53.362;58.948;2023-02-17T10:36:24;97009.19;;;-9.14;56.10
49943;BME280;36011;53.362;58.948;2023-02-17T10:39:50;96998.03;;;-9.24;56.38
49943;BME280;36011;53.362;58.948;2023-02-17T10:42:56;97003.88;;;-9.31;56.87
49943;BME280;36011;53.362;58.948;2023-02-17T10:46:06;97002.88;;;-9.42;57.20
49943;BME280;36011;53.362;58.948;2023-02-17T10:49:17;96999.41;;;-9.47;57.29
49943;BME280;36011;53.362;58.948;2023-02-17T10:52:36;96997.56;;;-9.55;56.81
49943;BME280;36011;53.362;58.948;2023-02-17T10:59:19;97007.56;;;-9.67;57.14
49943;BME280;36011;53.362;58.948;2023-02-17T11:02:38;97017.78;;;-9.65;57.12
49943;BME280;36011;53.362;58.948;2023-02-17T11:05:41;97022.81;;;-9.70;57.63
49943;BME280;36011;53.362;58.948;2023-02-17T11:08:59;97008.34;;;-9.73;57.21
49943;BME280;36011;53.362;58.948;2023-02-17T11:12:40;97012.56;;;-9.73;56.80
49943;BME280;36011;53.362;58.948;2023-02-17T11:15:46;96998.00;;;-9.82;57.08
49943;BME280;36011;53.362;58.948;2023-02-17T11:18:54;96996.22;;;-9.87;57.11
49943;BME280;36011;53.362;58.948;2023-02-17T11:21:59;97002.91;;;-9.92;57.15
49943;BME280;36011;53.362;58.948;2023-02-17T11:25:22;97000.31;;;-9.96;57.38
49943;BME280;36011;53.362;58.948;2023-02-17T11:28:27;96995.19;;;-9.97;57.06
49943;BME280;36011;53.362;58.948;2023-02-17T11:31:32;96998.44;;;-10.06;57.13
49943;BME280;36011;53.362;58.948;2023-02-17T11:34:36;96999.94;;;-10.17;57.00
49943;BME280;36011;53.362;58.948;2023-02-17T11:37:44;96987.06;;;-10.25;57.18
49943;BME280;36011;53.362;58.948;2023-02-17T11:40:55;96982.66;;;-10.36;57.11
49943;BME280;36011;53.362;58.948;2023-02-17T11:43:57;96987.34;;;-10.58;57.38
49943;BME280;36011;53.362;58.948;2023-02-17T11:50:31;96984.13;;;-10.92;57.50
49943;BME280;36011;53.362;58.948;2023-02-17T12:00:20;96990.44;;;-11.14;57.56
49943;BME280;36011;53.362;58.948;2023-02-17T12:03:37;96997.69;;;-11.31;58.04
49943;BME280;36011;53.362;58.948;2023-02-17T12:26:47;97014.81;;;-11.96;58.53
49943;BME280;36011;53.362;58.948;2023-02-17T12:33:37;97003.97;;;-11.90;58.08
49943;BME280;36011;53.362;58.948;2023-02-17T12:36:45;97001.38;;;-11.92;58.13
49943;BME280;36011;53.362;58.948;2023-02-17T12:39:54;97001.28;;;-11.95;58.36
49943;BME280;36011;53.362;58.948;2023-02-17T12:43:05;97008.75;;;-12.03;58.80
49943;BME280;36011;53.362;58.948;2023-02-17T12:46:16;97002.41;;;-12.18;58.74
49943;BME280;36011;53.362;58.948;2023-02-17T12:49:26;97007.34;;;-12.25;59.13
49943;BME280;36011;53.362;58.948;2023-02-17T12:52:38;97003.50;;;-12.42;58.72
49943;BME280;36011;53.362;58.948;2023-02-17T12:55:52;97008.31;;;-12.51;59.31
49943;BME280;36011;53.362;58.948;2023-02-17T12:58:59;97008.06;;;-12.60;59.56
49943;BME280;36011;53.362;58.948;2023-02-17T13:05:27;97005.84;;;-12.80;59.86
49943;BME280;36011;53.362;58.948;2023-02-17T13:08:41;97006.59;;;-12.84;59.77
49943;BME280;36011;53.362;58.948;2023-02-17T13:11:44;97017.19;;;-12.97;59.95
49943;BME280;36011;53.362;58.948;2023-02-17T13:14:59;97023.00;;;-13.00;60.05
49943;BME280;36011;53.362;58.948;2023-02-17T13:18:26;97028.00;;;-13.03;59.91
49943;BME280;36011;53.362;58.948;2023-02-17T13:21:32;97025.34;;;-13.07;60.47
49943;BME280;36011;53.362;58.948;2023-02-17T13:24:39;97028.59;;;-13.12;60.24
49943;BME280;36011;53.362;58.948;2023-02-17T13:27:51;97033.72;;;-13.08;60.04
49943;BME280;36011;53.362;58.948;2023-02-17T13:30:54;97029.41;;;-13.13;60.08
49943;BME280;36011;53.362;58.948;2023-02-17T13:34:01;97040.31;;;-13.14;60.29
49943;BME280;36011;53.362;58.948;2023-02-17T13:40:39;97039.47;;;-13.14;60.09
49943;BME280;36011;53.362;58.948;2023-02-17T13:43:46;97037.69;;;-13.18;59.86
49943;BME280;36011;53.362;58.948;2023-02-17T13:46:51;97041.69;;;-13.25;59.97
49943;BME280;36011;53.362;58.948;2023-02-17T13:50:00;97039.91;;;-13.29;60.12
49943;BME280;36011;53.362;58.948;2023-02-17T13:56:38;97050.16;;;-13.24;59.61
49943;BME280;36011;53.362;58.948;2023-02-17T13:59:39;97040.66;;;-13.33;59.99
49943;BME280;36011;53.362;58.948;2023-02-17T14:06:00;97049.78;;;-13.38;59.98
49943;BME280;36011;53.362;58.948;2023-02-17T14:12:32;97041.06;;;-13.46;59.97
49943;BME280;36011;53.362;58.948;2023-02-17T14:15:33;97054.94;;;-13.35;60.02
49943;BME280;36011;53.362;58.948;2023-02-17T14:18:38;97053.41;;;-13.30;60.12
49943;BME280;36011;53.362;58.948;2023-02-17T14:21:55;97051.47;;;-13.37;60.13
49943;BME280;36011;53.362;58.948;2023-02-17T14:25:06;97054.84;;;-13.38;60.38
49943;BME280;36011;53.362;58.948;2023-02-17T14:28:25;97061.69;;;-13.34;60.20
49943;BME280;36011;53.362;58.948;2023-02-17T14:31:27;97051.66;;;-13.31;60.83
49943;BME280;36011;53.362;58.948;2023-02-17T14:34:33;97052.47;;;-13.32;60.51
49943;BME280;36011;53.362;58.948;2023-02-17T14:37:35;97051.66;;;-13.31;60.78
49943;BME280;36011;53.362;58.948;2023-02-17T14:40:37;97052.31;;;-13.38;60.32
49943;BME280;36011;53.362;58.948;2023-02-17T14:43:39;97046.41;;;-13.37;60.47
49943;BME280;36011;53.362;58.948;2023-02-17T14:46:43;97051.63;;;-13.32;60.41
49943;BME280;36011;53.362;58.948;2023-02-17T14:49:47;97053.41;;;-13.30;60.71
49943;BME280;36011;53.362;58.948;2023-02-17T14:52:57;97049.88;;;-13.33;60.74
49943;BME280;36011;53.362;58.948;2023-02-17T14:59:09;97051.38;;;-13.40;60.61
49943;BME280;36011;53.362;58.948;2023-02-17T15:02:16;97044.53;;;-13.44;60.33
49943;BME280;36011;53.362;58.948;2023-02-17T15:05:18;97049.34;;;-13.52;60.51
49943;BME280;36011;53.362;58.948;2023-02-17T15:08:24;97030.78;;;-13.52;60.87
49943;BME280;36011;53.362;58.948;2023-02-17T15:11:33;97034.19;;;-13.50;60.79
49943;BME280;36011;53.362;58.948;2023-02-17T15:14:36;97032.38;;;-13.54;60.88
49943;BME280;36011;53.362;58.948;2023-02-17T15:17:38;97042.31;;;-13.61;60.76
49943;BME280;36011;53.362;58.948;2023-02-17T15:20:43;97037.06;;;-13.67;60.84
49943;BME280;36011;53.362;58.948;2023-02-17T15:23:45;97033.53;;;-13.72;60.79
49943;BME280;36011;53.362;58.948;2023-02-17T15:26:50;97035.06;;;-13.77;60.88
49943;BME280;36011;53.362;58.948;2023-02-17T15:29:51;97034.19;;;-13.77;60.89
49943;BME280;36011;53.362;58.948;2023-02-17T15:32:53;97033.03;;;-13.87;61.17
49943;BME280;36011;53.362;58.948;2023-02-17T15:35:54;97031.78;;;-14.00;61.15
49943;BME280;36011;53.362;58.948;2023-02-17T15:38:58;97032.25;;;-14.12;61.25
49943;BME280;36011;53.362;58.948;2023-02-17T15:42:10;97040.41;;;-14.19;61.46
49943;BME280;36011;53.362;58.948;2023-02-17T15:45:16;97039.41;;;-14.24;61.10
49943;BME280;36011;53.362;58.948;2023-02-17T15:48:26;97045.16;;;-14.28;61.45
49943;BME280;36011;53.362;58.948;2023-02-17T15:51:32;97039.25;;;-14.29;61.19
49943;BME280;36011;53.362;58.948;2023-02-17T15:54:36;97050.31;;;-14.25;61.29
49943;BME280;36011;53.362;58.948;2023-02-17T15:57:45;97043.75;;;-14.20;61.43
49943;BME280;36011;53.362;58.948;2023-02-17T16:00:49;97037.88;;;-14.19;61.29
49943;BME280;36011;53.362;58.948;2023-02-17T16:03:54;97042.25;;;-14.15;61.27
49943;BME280;36011;53.362;58.948;2023-02-17T16:06:58;97040.72;;;-14.10;61.06
49943;BME280;36011;53.362;58.948;2023-02-17T16:10:00;97042.56;;;-14.06;61.05
49943;BME280;36011;53.362;58.948;2023-02-17T16:13:08;97035.06;;;-14.03;61.21
49943;BME280;36011;53.362;58.948;2023-02-17T16:16:38;97031.22;;;-13.91;60.90
49943;BME280;36011;53.362;58.948;2023-02-17T16:19:38;97029.50;;;-13.92;61.36
49943;BME280;36011;53.362;58.948;2023-02-17T16:22:40;97024.22;;;-13.98;60.73
49943;BME280;36011;53.362;58.948;2023-02-17T16:25:44;97034.88;;;-13.83;61.30
49943;BME280;36011;53.362;58.948;2023-02-17T16:28:52;97031.50;;;-13.82;60.76
49943;BME280;36011;53.362;58.948;2023-02-17T16:31:56;97032.25;;;-13.86;60.61
49943;BME280;36011;53.362;58.948;2023-02-17T16:34:59;97025.41;;;-13.89;61.12
49943;BME280;36011;53.362;58.948;2023-02-17T16:38:14;97022.53;;;-13.99;61.01
49943;BME280;36011;53.362;58.948;2023-02-17T16:41:20;97032.38;;;-14.07;61.20
49943;BME280;36011;53.362;58.948;2023-02-17T16:44:21;97026.06;;;-14.20;61.12
49943;BME280;36011;53.362;58.948;2023-02-17T16:47:26;97007.53;;;-14.44;60.99
49943;BME280;36011;53.362;58.948;2023-02-17T16:50:46;97019.16;;;-14.50;61.18
49943;BME280;36011;53.362;58.948;2023-02-17T16:53:47;97012.81;;;-14.64;61.56
49943;BME280;36011;53.362;58.948;2023-02-17T16:56:52;97015.75;;;-14.76;61.66
49943;BME280;36011;53.362;58.948;2023-02-17T16:59:54;97008.53;;;-14.89;61.93
49943;BME280;36011;53.362;58.948;2023-02-17T17:02:59;97000.81;;;-14.94;62.06
49943;BME280;36011;53.362;58.948;2023-02-17T17:09:22;97004.56;;;-15.06;62.12
49943;BME280;36011;53.362;58.948;2023-02-17T17:12:25;97002.66;;;-15.12;62.22
49943;BME280;36011;53.362;58.948;2023-02-17T17:15:34;96995.00;;;-15.15;62.02
49943;BME280;36011;53.362;58.948;2023-02-17T17:18:39;96998.13;;;-15.22;62.11
49943;BME280;36011;53.362;58.948;2023-02-17T17:21:40;97009.16;;;-15.19;62.20
49943;BME280;36011;53.362;58.948;2023-02-17T17:24:44;97005.78;;;-15.19;62.25
49943;BME280;36011;53.362;58.948;2023-02-17T17:27:48;96999.94;;;-15.18;62.43
49943;BME280;36011;53.362;58.948;2023-02-17T17:30:49;97008.44;;;-15.16;62.43
49943;BME280;36011;53.362;58.948;2023-02-17T17:33:50;97010.25;;;-15.12;62.17
49943;BME280;36011;53.362;58.948;2023-02-17T17:36:54;97008.66;;;-15.10;62.31
49943;BME280;36011;53.362;58.948;2023-02-17T17:39:58;97006.34;;;-15.04;62.09
49943;BME280;36011;53.362;58.948;2023-02-17T17:43:02;96991.19;;;-15.04;62.19
49943;BME280;36011;53.362;58.948;2023-02-17T17:46:20;96999.91;;;-14.96;62.05